sensor_id;sensor_type;location;lat;lon;timestamp;temperature;humidity
18454;DHT22;9356;52.202;20.950;2023-02-21T00:00:21;7.90;99.90
18454;DHT22;9356;52.202;20.950;2023-02-21T00:01:42;7.90;99.90
18454;DHT22;9356;52.202;20.950;2023-02-21T00:03:03;7.90;99.90
18454;DHT22;9356;52.202;20.950;2023-02-21T00:04:24;7.90;99.90
18454;DHT22;9356;52.202;20.950;2023-02-21T00:05:45;7.90;99.90
18454;DHT22;9356;52.202;20.950;2023-02-21T00:07:07;7.80;99.90
18454;DHT22;9356;52.202;20.950;2023-02-21T00:08:29;7.80;99.90
18454;DHT22;9356;52.202;20.950;2023-02-21T00:09:50;7.80;99.90
18454;DHT22;9356;52.202;20.950;2023-02-21T00:11:12;7.80;99.90
18454;DHT22;9356;52.202;20.950;2023-02-21T00:12:33;7.80;99.90
18454;DHT22;9356;52.202;20.950;2023-02-21T00:13:53;7.80;99.90
18454;DHT22;9356;52.202;20.950;2023-02-21T00:15:15;7.80;99.90
18454;DHT22;9356;52.202;20.950;2023-02-21T00:16:36;7.70;99.90
18454;DHT22;9356;52.202;20.950;2023-02-21T00:17:57;7.80;99.90
18454;DHT22;9356;52.202;20.950;2023-02-21T00:19:18;7.80;99.90
18454;DHT22;9356;52.202;20.950;2023-02-21T00:20:39;7.80;99.90
18454;DHT22;9356;52.202;20.950;2023-02-21T00:22:00;7.90;99.90
18454;DHT22;9356;52.202;20.950;2023-02-21T00:23:21;7.90;99.90
18454;DHT22;9356;52.202;20.950;2023-02-21T00:24:44;7.90;99.90
18454;DHT22;9356;52.202;20.950;2023-02-21T00:26:05;7.90;99.90
18454;DHT22;9356;52.202;20.950;2023-02-21T00:27:27;7.90;99.90
18454;DHT22;9356;52.202;20.950;2023-02-21T00:28:48;8.00;99.90
18454;DHT22;9356;52.202;20.950;2023-02-21T00:30:09;7.90;99.90
18454;DHT22;9356;52.202;20.950;2023-02-21T00:31:32;8.00;99.90
18454;DHT22;9356;52.202;20.950;2023-02-21T00:32:53;8.00;99.90
18454;DHT22;9356;52.202;20.950;2023-02-21T00:34:15;8.00;99.90
18454;DHT22;9356;52.202;20.950;2023-02-21T00:35:35;8.00;99.90
18454;DHT22;9356;52.202;20.950;2023-02-21T00:36:57;8.00;99.90
18454;DHT22;9356;52.202;20.950;2023-02-21T00:38:18;8.10;99.90
18454;DHT22;9356;52.202;20.950;2023-02-21T00:39:39;8.00;99.90
18454;DHT22;9356;52.202;20.950;2023-02-21T00:41:02;8.00;99.90
18454;DHT22;9356;52.202;20.950;2023-02-21T00:42:24;8.10;99.90
18454;DHT22;9356;52.202;20.950;2023-02-21T00:43:45;8.10;99.90
18454;DHT22;9356;52.202;20.950;2023-02-21T00:45:07;8.10;99.90
18454;DHT22;9356;52.202;20.950;2023-02-21T00:46:28;8.20;99.90
18454;DHT22;9356;52.202;20.950;2023-02-21T00:47:49;8.10;99.90
18454;DHT22;9356;52.202;20.950;2023-02-21T00:49:10;8.20;99.90
18454;DHT22;9356;52.202;20.950;2023-02-21T00:50:32;8.30;99.90
18454;DHT22;9356;52.202;20.950;2023-02-21T00:51:54;8.20;99.90
18454;DHT22;9356;52.202;20.950;2023-02-21T00:53:15;8.30;99.90
18454;DHT22;9356;52.202;20.950;2023-02-21T00:54:37;8.30;99.90
18454;DHT22;9356;52.202;20.950;2023-02-21T00:55:57;8.30;99.90
18454;DHT22;9356;52.202;20.950;2023-02-21T00:57:21;8.20;99.90
18454;DHT22;9356;52.202;20.950;2023-02-21T00:58:42;8.20;99.90
18454;DHT22;9356;52.202;20.950;2023-02-21T01:00:05;8.20;99.90
18454;DHT22;9356;52.202;20.950;2023-02-21T01:01:28;8.20;99.90
18454;DHT22;9356;52.202;20.950;2023-02-21T01:02:49;8.20;99.90
18454;DHT22;9356;52.202;20.950;2023-02-21T01:04:11;8.10;99.90
18454;DHT22;9356;52.202;20.950;2023-02-21T01:05:32;8.00;99.90
18454;DHT22;9356;52.202;20.950;2023-02-21T01:06:54;8.00;99.90
18454;DHT22;9356;52.202;20.950;2023-02-21T01:08:17;8.00;99.90
18454;DHT22;9356;52.202;20.950;2023-02-21T01:09:38;8.00;99.90
18454;DHT22;9356;52.202;20.950;2023-02-21T01:10:59;8.00;99.90
18454;DHT22;9356;52.202;20.950;2023-02-21T01:12:21;7.90;99.90
18454;DHT22;9356;52.202;20.950;2023-02-21T01:13:43;8.00;99.90
18454;DHT22;9356;52.202;20.950;2023-02-21T01:15:06;8.00;99.90
18454;DHT22;9356;52.202;20.950;2023-02-21T01:16:28;8.00;99.90
18454;DHT22;9356;52.202;20.950;2023-02-21T01:17:49;8.10;99.90
18454;DHT22;9356;52.202;20.950;2023-02-21T01:19:10;8.10;99.90
18454;DHT22;9356;52.202;20.950;2023-02-21T01:20:34;8.00;99.90
18454;DHT22;9356;52.202;20.950;2023-02-21T01:21:55;8.00;99.90
18454;DHT22;9356;52.202;20.950;2023-02-21T01:23:18;7.90;99.90
18454;DHT22;9356;52.202;20.950;2023-02-21T01:24:39;7.90;99.90
18454;DHT22;9356;52.202;20.950;2023-02-21T01:26:00;8.00;99.90
18454;DHT22;9356;52.202;20.950;2023-02-21T01:27:23;8.00;99.90
18454;DHT22;9356;52.202;20.950;2023-02-21T01:28:46;8.00;99.90
18454;DHT22;9356;52.202;20.950;2023-02-21T01:30:08;7.90;99.90
18454;DHT22;9356;52.202;20.950;2023-02-21T01:31:29;7.90;99.90
18454;DHT22;9356;52.202;20.950;2023-02-21T01:32:50;7.90;99.90
18454;DHT22;9356;52.202;20.950;2023-02-21T01:34:11;7.90;99.90
18454;DHT22;9356;52.202;20.950;2023-02-21T01:35:32;7.90;99.90
18454;DHT22;9356;52.202;20.950;2023-02-21T01:36:54;7.90;99.90
18454;DHT22;9356;52.202;20.950;2023-02-21T01:38:15;8.00;99.90
18454;DHT22;9356;52.202;20.950;2023-02-21T01:39:37;7.90;99.90
18454;DHT22;9356;52.202;20.950;2023-02-21T01:40:58;7.90;99.90
18454;DHT22;9356;52.202;20.950;2023-02-21T01:42:19;7.90;99.90
18454;DHT22;9356;52.202;20.950;2023-02-21T01:43:57;7.90;99.90
18454;DHT22;9356;52.202;20.950;2023-02-21T01:45:49;7.90;99.90
18454;DHT22;9356;52.202;20.950;2023-02-21T01:47:13;7.90;99.90
18454;DHT22;9356;52.202;20.950;2023-02-21T01:48:35;7.80;99.90
18454;DHT22;9356;52.202;20.950;2023-02-21T01:49:59;7.90;99.90
18454;DHT22;9356;52.202;20.950;2023-02-21T01:51:26;7.90;99.90
18454;DHT22;9356;52.202;20.950;2023-02-21T01:52:49;7.90;99.90
18454;DHT22;9356;52.202;20.950;2023-02-21T01:54:11;7.90;99.90
18454;DHT22;9356;52.202;20.950;2023-02-21T01:55:33;7.90;99.90
18454;DHT22;9356;52.202;20.950;2023-02-21T01:56:58;8.00;99.90
18454;DHT22;9356;52.202;20.950;2023-02-21T01:58:24;8.00;99.90
18454;DHT22;9356;52.202;20.950;2023-02-21T01:59:49;8.00;99.90
18454;DHT22;9356;52.202;20.950;2023-02-21T02:01:26;8.10;99.90
18454;DHT22;9356;52.202;20.950;2023-02-21T02:02:55;8.00;99.90
18454;DHT22;9356;52.202;20.950;2023-02-21T02:04:16;8.00;99.90
18454;DHT22;9356;52.202;20.950;2023-02-21T02:05:39;8.10;99.90
18454;DHT22;9356;52.202;20.950;2023-02-21T02:07:01;8.00;99.90
18454;DHT22;9356;52.202;20.950;2023-02-21T02:08:28;8.00;99.90
18454;DHT22;9356;52.202;20.950;2023-02-21T02:09:49;8.00;99.90
18454;DHT22;9356;52.202;20.950;2023-02-21T02:11:29;8.00;99.90
18454;DHT22;9356;52.202;20.950;2023-02-21T02:13:09;8.00;99.90
18454;DHT22;9356;52.202;20.950;2023-02-21T02:14:31;8.10;99.90
18454;DHT22;9356;52.202;20.950;2023-02-21T02:15:46;8.10;99.90
18454;DHT22;9356;52.202;20.950;2023-02-21T02:17:01;8.00;99.90
18454;DHT22;9356;52.202;20.950;2023-02-21T02:18:21;8.00;99.90
18454;DHT22;9356;52.202;20.950;2023-02-21T02:20:01;8.00;99.90
18454;DHT22;9356;52.202;20.950;2023-02-21T02:21:47;8.00;99.90
18454;DHT22;9356;52.202;20.950;2023-02-21T02:23:16;7.90;99.90
18454;DHT22;9356;52.202;20.950;2023-02-21T02:27:49;8.00;99.90
18454;DHT22;9356;52.202;20.950;2023-02-21T02:29:13;7.90;99.90
18454;DHT22;9356;52.202;20.950;2023-02-21T02:30:42;7.90;99.90
18454;DHT22;9356;52.202;20.950;2023-02-21T02:35:21;7.80;99.90
18454;DHT22;9356;52.202;20.950;2023-02-21T02:36:36;7.80;99.90
18454;DHT22;9356;52.202;20.950;2023-02-21T02:37:51;7.90;99.90
18454;DHT22;9356;52.202;20.950;2023-02-21T02:39:04;7.90;99.90
18454;DHT22;9356;52.202;20.950;2023-02-21T02:40:21;7.90;99.90
18454;DHT22;9356;52.202;20.950;2023-02-21T02:41:43;7.80;99.90
18454;DHT22;9356;52.202;20.950;2023-02-21T02:42:59;7.80;99.90
18454;DHT22;9356;52.202;20.950;2023-02-21T02:44:12;7.80;99.90
18454;DHT22;9356;52.202;20.950;2023-02-21T02:45:24;7.80;99.90
18454;DHT22;9356;52.202;20.950;2023-02-21T02:46:30;7.80;99.90
18454;DHT22;9356;52.202;20.950;2023-02-21T02:47:37;7.80;99.90
18454;DHT22;9356;52.202;20.950;2023-02-21T02:48:46;7.70;99.90
18454;DHT22;9356;52.202;20.950;2023-02-21T02:49:51;7.70;99.90
18454;DHT22;9356;52.202;20.950;2023-02-21T02:51:02;7.70;99.90
18454;DHT22;9356;52.202;20.950;2023-02-21T02:52:07;7.70;99.90
18454;DHT22;9356;52.202;20.950;2023-02-21T02:53:11;7.70;99.90
18454;DHT22;9356;52.202;20.950;2023-02-21T02:54:17;7.60;99.90
18454;DHT22;9356;52.202;20.950;2023-02-21T02:55:34;7.60;99.90
18454;DHT22;9356;52.202;20.950;2023-02-21T02:56:37;7.70;99.90
18454;DHT22;9356;52.202;20.950;2023-02-21T02:57:41;7.70;99.90
18454;DHT22;9356;52.202;20.950;2023-02-21T02:58:56;7.70;99.90
18454;DHT22;9356;52.202;20.950;2023-02-21T03:00:02;7.70;99.90
18454;DHT22;9356;52.202;20.950;2023-02-21T03:01:19;7.70;99.90
18454;DHT22;9356;52.202;20.950;2023-02-21T03:02:48;7.70;99.90
18454;DHT22;9356;52.202;20.950;2023-02-21T03:04:05;7.70;99.90
18454;DHT22;9356;52.202;20.950;2023-02-21T03:05:30;7.80;99.90
18454;DHT22;9356;52.202;20.950;2023-02-21T03:06:47;7.80;99.90
18454;DHT22;9356;52.202;20.950;2023-02-21T03:08:02;7.80;99.90
18454;DHT22;9356;52.202;20.950;2023-02-21T03:09:13;7.80;99.90
18454;DHT22;9356;52.202;20.950;2023-02-21T03:10:26;7.80;99.90
18454;DHT22;9356;52.202;20.950;2023-02-21T03:11:30;7.80;99.90
18454;DHT22;9356;52.202;20.950;2023-02-21T03:12:40;7.80;99.90
18454;DHT22;9356;52.202;20.950;2023-02-21T03:13:50;7.70;99.90
18454;DHT22;9356;52.202;20.950;2023-02-21T03:15:01;7.70;99.90
18454;DHT22;9356;52.202;20.950;2023-02-21T03:16:15;7.70;99.90
18454;DHT22;9356;52.202;20.950;2023-02-21T03:17:25;7.70;99.90
18454;DHT22;9356;52.202;20.950;2023-02-21T03:18:35;7.60;99.90
18454;DHT22;9356;52.202;20.950;2023-02-21T03:19:45;7.60;99.90
18454;DHT22;9356;52.202;20.950;2023-02-21T03:20:55;7.60;99.90
18454;DHT22;9356;52.202;20.950;2023-02-21T03:22:04;7.60;99.90
18454;DHT22;9356;52.202;20.950;2023-02-21T03:23:11;7.60;99.90
18454;DHT22;9356;52.202;20.950;2023-02-21T03:24:19;7.60;99.90
18454;DHT22;9356;52.202;20.950;2023-02-21T03:25:25;7.60;99.80
18454;DHT22;9356;52.202;20.950;2023-02-21T03:26:36;7.60;99.90
18454;DHT22;9356;52.202;20.950;2023-02-21T03:27:59;7.60;99.80
18454;DHT22;9356;52.202;20.950;2023-02-21T03:29:12;7.60;99.70
18454;DHT22;9356;52.202;20.950;2023-02-21T03:30:17;7.50;99.60
18454;DHT22;9356;52.202;20.950;2023-02-21T03:31:31;7.50;99.80
18454;DHT22;9356;52.202;20.950;2023-02-21T03:32:45;7.50;99.70
18454;DHT22;9356;52.202;20.950;2023-02-21T03:33:53;7.40;99.60
18454;DHT22;9356;52.202;20.950;2023-02-21T03:34:56;7.50;99.80
18454;DHT22;9356;52.202;20.950;2023-02-21T03:36:05;7.40;99.80
18454;DHT22;9356;52.202;20.950;2023-02-21T03:37:19;7.40;99.80
18454;DHT22;9356;52.202;20.950;2023-02-21T03:38:26;7.50;99.70
18454;DHT22;9356;52.202;20.950;2023-02-21T03:39:29;7.50;99.70
18454;DHT22;9356;52.202;20.950;2023-02-21T03:40:33;7.50;99.80
18454;DHT22;9356;52.202;20.950;2023-02-21T03:41:37;7.50;99.50
18454;DHT22;9356;52.202;20.950;2023-02-21T03:42:42;7.50;99.50
18454;DHT22;9356;52.202;20.950;2023-02-21T03:43:44;7.50;99.40
18454;DHT22;9356;52.202;20.950;2023-02-21T03:44:48;7.40;99.30
18454;DHT22;9356;52.202;20.950;2023-02-21T03:45:51;7.40;99.20
18454;DHT22;9356;52.202;20.950;2023-02-21T03:46:55;7.40;99.10
18454;DHT22;9356;52.202;20.950;2023-02-21T03:47:58;7.40;99.00
18454;DHT22;9356;52.202;20.950;2023-02-21T03:49:02;7.40;98.80
18454;DHT22;9356;52.202;20.950;2023-02-21T03:50:05;7.40;98.70
18454;DHT22;9356;52.202;20.950;2023-02-21T03:51:14;7.30;98.70
18454;DHT22;9356;52.202;20.950;2023-02-21T03:52:18;7.40;98.70
18454;DHT22;9356;52.202;20.950;2023-02-21T03:53:22;7.40;98.50
18454;DHT22;9356;52.202;20.950;2023-02-21T03:54:27;7.40;98.60
18454;DHT22;9356;52.202;20.950;2023-02-21T03:55:33;7.40;98.70
18454;DHT22;9356;52.202;20.950;2023-02-21T03:56:40;7.40;98.60
18454;DHT22;9356;52.202;20.950;2023-02-21T03:57:56;7.40;98.40
18454;DHT22;9356;52.202;20.950;2023-02-21T03:58:59;7.40;98.30
18454;DHT22;9356;52.202;20.950;2023-02-21T04:00:04;7.30;98.30
18454;DHT22;9356;52.202;20.950;2023-02-21T04:01:15;7.30;98.10
18454;DHT22;9356;52.202;20.950;2023-02-21T04:02:19;7.30;98.10
18454;DHT22;9356;52.202;20.950;2023-02-21T04:03:23;7.30;97.90
18454;DHT22;9356;52.202;20.950;2023-02-21T04:04:29;7.30;97.90
18454;DHT22;9356;52.202;20.950;2023-02-21T04:05:46;7.40;98.10
18454;DHT22;9356;52.202;20.950;2023-02-21T04:06:49;7.40;97.50
18454;DHT22;9356;52.202;20.950;2023-02-21T04:07:53;7.40;97.50
18454;DHT22;9356;52.202;20.950;2023-02-21T04:08:56;7.40;97.30
18454;DHT22;9356;52.202;20.950;2023-02-21T04:10:01;7.40;97.50
18454;DHT22;9356;52.202;20.950;2023-02-21T04:11:15;7.30;97.40
18454;DHT22;9356;52.202;20.950;2023-02-21T04:12:19;7.40;97.60
18454;DHT22;9356;52.202;20.950;2023-02-21T04:13:24;7.40;97.60
18454;DHT22;9356;52.202;20.950;2023-02-21T04:14:27;7.40;97.30
18454;DHT22;9356;52.202;20.950;2023-02-21T04:15:32;7.40;97.50
18454;DHT22;9356;52.202;20.950;2023-02-21T04:16:35;7.40;97.50
18454;DHT22;9356;52.202;20.950;2023-02-21T04:17:39;7.40;97.50
18454;DHT22;9356;52.202;20.950;2023-02-21T04:18:44;7.40;97.20
18454;DHT22;9356;52.202;20.950;2023-02-21T04:19:50;7.40;97.10
18454;DHT22;9356;52.202;20.950;2023-02-21T04:20:53;7.40;97.30
18454;DHT22;9356;52.202;20.950;2023-02-21T04:21:57;7.40;97.00
18454;DHT22;9356;52.202;20.950;2023-02-21T04:23:01;7.30;97.00
18454;DHT22;9356;52.202;20.950;2023-02-21T04:24:07;7.40;97.00
18454;DHT22;9356;52.202;20.950;2023-02-21T04:25:10;7.30;96.90
18454;DHT22;9356;52.202;20.950;2023-02-21T04:26:21;7.30;97.00
18454;DHT22;9356;52.202;20.950;2023-02-21T04:27:25;7.30;97.10
18454;DHT22;9356;52.202;20.950;2023-02-21T04:28:30;7.30;97.30
18454;DHT22;9356;52.202;20.950;2023-02-21T04:29:34;7.30;96.90
18454;DHT22;9356;52.202;20.950;2023-02-21T04:30:36;7.30;97.10
18454;DHT22;9356;52.202;20.950;2023-02-21T04:31:40;7.30;97.00
18454;DHT22;9356;52.202;20.950;2023-02-21T04:32:48;7.30;97.10
18454;DHT22;9356;52.202;20.950;2023-02-21T04:33:51;7.30;96.90
18454;DHT22;9356;52.202;20.950;2023-02-21T04:35:12;7.20;96.90
18454;DHT22;9356;52.202;20.950;2023-02-21T04:36:17;7.20;97.00
18454;DHT22;9356;52.202;20.950;2023-02-21T04:37:20;7.20;96.90
18454;DHT22;9356;52.202;20.950;2023-02-21T04:38:24;7.20;97.10
18454;DHT22;9356;52.202;20.950;2023-02-21T04:39:28;7.20;97.20
18454;DHT22;9356;52.202;20.950;2023-02-21T04:40:31;7.20;97.00
18454;DHT22;9356;52.202;20.950;2023-02-21T04:41:34;7.10;97.00
18454;DHT22;9356;52.202;20.950;2023-02-21T04:42:38;7.10;97.10
18454;DHT22;9356;52.202;20.950;2023-02-21T04:43:42;7.10;97.20
18454;DHT22;9356;52.202;20.950;2023-02-21T04:44:45;7.20;97.20
18454;DHT22;9356;52.202;20.950;2023-02-21T04:46:02;7.10;97.20
18454;DHT22;9356;52.202;20.950;2023-02-21T04:47:05;7.00;96.80
18454;DHT22;9356;52.202;20.950;2023-02-21T04:48:08;7.00;96.90
18454;DHT22;9356;52.202;20.950;2023-02-21T04:49:14;7.00;96.90
18454;DHT22;9356;52.202;20.950;2023-02-21T04:50:18;7.00;96.90
18454;DHT22;9356;52.202;20.950;2023-02-21T04:51:22;7.00;97.10
18454;DHT22;9356;52.202;20.950;2023-02-21T04:52:26;7.00;97.00
18454;DHT22;9356;52.202;20.950;2023-02-21T04:53:30;6.90;97.10
18454;DHT22;9356;52.202;20.950;2023-02-21T04:54:34;6.90;97.10
18454;DHT22;9356;52.202;20.950;2023-02-21T04:55:36;7.00;97.10
18454;DHT22;9356;52.202;20.950;2023-02-21T04:56:41;7.00;97.20
18454;DHT22;9356;52.202;20.950;2023-02-21T04:57:44;7.00;97.00
18454;DHT22;9356;52.202;20.950;2023-02-21T04:58:48;7.00;97.00
18454;DHT22;9356;52.202;20.950;2023-02-21T04:59:56;7.00;96.90
18454;DHT22;9356;52.202;20.950;2023-02-21T05:01:00;7.00;97.10
18454;DHT22;9356;52.202;20.950;2023-02-21T05:02:03;7.10;97.30
18454;DHT22;9356;52.202;20.950;2023-02-21T05:03:07;7.10;97.40
18454;DHT22;9356;52.202;20.950;2023-02-21T05:04:10;7.10;97.40
18454;DHT22;9356;52.202;20.950;2023-02-21T05:05:14;7.20;97.30
18454;DHT22;9356;52.202;20.950;2023-02-21T05:06:17;7.20;97.20
18454;DHT22;9356;52.202;20.950;2023-02-21T05:07:21;7.10;97.00
18454;DHT22;9356;52.202;20.950;2023-02-21T05:08:24;7.10;97.00
18454;DHT22;9356;52.202;20.950;2023-02-21T05:09:31;7.20;97.30
18454;DHT22;9356;52.202;20.950;2023-02-21T05:10:33;7.20;97.50
18454;DHT22;9356;52.202;20.950;2023-02-21T05:11:46;7.10;97.10
18454;DHT22;9356;52.202;20.950;2023-02-21T05:12:49;7.10;97.30
18454;DHT22;9356;52.202;20.950;2023-02-21T05:13:52;7.00;97.30
18454;DHT22;9356;52.202;20.950;2023-02-21T05:14:55;7.10;97.50
18454;DHT22;9356;52.202;20.950;2023-02-21T05:15:59;7.00;97.20
18454;DHT22;9356;52.202;20.950;2023-02-21T05:17:01;7.10;97.20
18454;DHT22;9356;52.202;20.950;2023-02-21T05:18:05;7.10;97.30
18454;DHT22;9356;52.202;20.950;2023-02-21T05:19:07;7.10;97.20
18454;DHT22;9356;52.202;20.950;2023-02-21T05:20:11;7.10;97.20
18454;DHT22;9356;52.202;20.950;2023-02-21T05:21:15;7.10;97.10
18454;DHT22;9356;52.202;20.950;2023-02-21T05:22:19;7.10;96.90
18454;DHT22;9356;52.202;20.950;2023-02-21T05:23:21;7.00;97.10
18454;DHT22;9356;52.202;20.950;2023-02-21T05:24:40;7.00;96.80
18454;DHT22;9356;52.202;20.950;2023-02-21T05:25:44;7.00;96.90
18454;DHT22;9356;52.202;20.950;2023-02-21T05:26:50;7.10;96.80
18454;DHT22;9356;52.202;20.950;2023-02-21T05:27:53;7.00;96.90
18454;DHT22;9356;52.202;20.950;2023-02-21T05:28:57;7.00;96.80
18454;DHT22;9356;52.202;20.950;2023-02-21T05:29:59;7.00;97.00
18454;DHT22;9356;52.202;20.950;2023-02-21T05:31:03;7.10;96.90
18454;DHT22;9356;52.202;20.950;2023-02-21T05:32:07;7.10;96.70
18454;DHT22;9356;52.202;20.950;2023-02-21T05:33:10;7.10;96.70
18454;DHT22;9356;52.202;20.950;2023-02-21T05:34:14;7.00;96.70
18454;DHT22;9356;52.202;20.950;2023-02-21T05:35:18;7.10;96.90
18454;DHT22;9356;52.202;20.950;2023-02-21T05:36:21;7.10;97.10
18454;DHT22;9356;52.202;20.950;2023-02-21T05:37:27;7.10;96.80
18454;DHT22;9356;52.202;20.950;2023-02-21T05:38:32;7.20;96.80
18454;DHT22;9356;52.202;20.950;2023-02-21T05:39:37;7.20;96.80
18454;DHT22;9356;52.202;20.950;2023-02-21T05:40:40;7.20;96.90
18454;DHT22;9356;52.202;20.950;2023-02-21T05:41:47;7.20;97.20
18454;DHT22;9356;52.202;20.950;2023-02-21T05:42:51;7.20;97.20
18454;DHT22;9356;52.202;20.950;2023-02-21T05:43:53;7.20;97.20
18454;DHT22;9356;52.202;20.950;2023-02-21T05:44:57;7.10;97.20
18454;DHT22;9356;52.202;20.950;2023-02-21T05:46:00;7.00;97.60
18454;DHT22;9356;52.202;20.950;2023-02-21T05:47:04;7.10;97.80
18454;DHT22;9356;52.202;20.950;2023-02-21T05:48:08;7.00;97.80
18454;DHT22;9356;52.202;20.950;2023-02-21T05:49:12;7.10;97.90
18454;DHT22;9356;52.202;20.950;2023-02-21T05:50:15;7.00;98.10
18454;DHT22;9356;52.202;20.950;2023-02-21T05:51:19;7.00;98.20
18454;DHT22;9356;52.202;20.950;2023-02-21T05:52:21;7.10;98.30
18454;DHT22;9356;52.202;20.950;2023-02-21T05:53:25;7.10;98.30
18454;DHT22;9356;52.202;20.950;2023-02-21T05:54:27;7.00;98.40
18454;DHT22;9356;52.202;20.950;2023-02-21T05:55:32;7.00;98.60
18454;DHT22;9356;52.202;20.950;2023-02-21T05:56:38;6.90;98.60
18454;DHT22;9356;52.202;20.950;2023-02-21T05:57:42;7.00;98.70
18454;DHT22;9356;52.202;20.950;2023-02-21T05:58:45;7.00;98.70
18454;DHT22;9356;52.202;20.950;2023-02-21T05:59:49;7.00;98.40
18454;DHT22;9356;52.202;20.950;2023-02-21T06:00:51;7.00;98.50
18454;DHT22;9356;52.202;20.950;2023-02-21T06:01:55;7.00;98.40
18454;DHT22;9356;52.202;20.950;2023-02-21T06:02:59;7.00;98.20
18454;DHT22;9356;52.202;20.950;2023-02-21T06:04:05;7.00;98.00
18454;DHT22;9356;52.202;20.950;2023-02-21T06:05:09;7.00;98.10
18454;DHT22;9356;52.202;20.950;2023-02-21T06:06:13;6.90;97.90
18454;DHT22;9356;52.202;20.950;2023-02-21T06:07:17;6.90;98.00
18454;DHT22;9356;52.202;20.950;2023-02-21T06:08:21;6.90;98.10
18454;DHT22;9356;52.202;20.950;2023-02-21T06:09:24;7.00;98.00
18454;DHT22;9356;52.202;20.950;2023-02-21T06:10:27;7.00;97.90
18454;DHT22;9356;52.202;20.950;2023-02-21T06:11:33;7.00;97.80
18454;DHT22;9356;52.202;20.950;2023-02-21T06:12:38;7.00;97.70
18454;DHT22;9356;52.202;20.950;2023-02-21T06:13:41;7.00;97.80
18454;DHT22;9356;52.202;20.950;2023-02-21T06:14:45;7.00;97.70
18454;DHT22;9356;52.202;20.950;2023-02-21T06:15:48;7.10;97.90
18454;DHT22;9356;52.202;20.950;2023-02-21T06:16:51;7.10;97.80
18454;DHT22;9356;52.202;20.950;2023-02-21T06:17:54;7.10;97.70
18454;DHT22;9356;52.202;20.950;2023-02-21T06:18:58;7.20;97.50
18454;DHT22;9356;52.202;20.950;2023-02-21T06:20:01;7.20;97.30
18454;DHT22;9356;52.202;20.950;2023-02-21T06:21:04;7.20;97.40
18454;DHT22;9356;52.202;20.950;2023-02-21T06:22:08;7.20;97.40
18454;DHT22;9356;52.202;20.950;2023-02-21T06:23:11;7.20;97.40
18454;DHT22;9356;52.202;20.950;2023-02-21T06:24:17;7.20;97.10
18454;DHT22;9356;52.202;20.950;2023-02-21T06:25:20;7.10;97.20
18454;DHT22;9356;52.202;20.950;2023-02-21T06:26:23;7.10;97.40
18454;DHT22;9356;52.202;20.950;2023-02-21T06:27:28;7.10;97.20
18454;DHT22;9356;52.202;20.950;2023-02-21T06:28:31;7.20;97.10
18454;DHT22;9356;52.202;20.950;2023-02-21T06:29:35;7.20;97.30
18454;DHT22;9356;52.202;20.950;2023-02-21T06:30:37;7.20;97.10
18454;DHT22;9356;52.202;20.950;2023-02-21T06:31:41;7.20;97.00
18454;DHT22;9356;52.202;20.950;2023-02-21T06:32:44;7.20;96.90
18454;DHT22;9356;52.202;20.950;2023-02-21T06:33:48;7.30;96.80
18454;DHT22;9356;52.202;20.950;2023-02-21T06:34:51;7.30;96.60
18454;DHT22;9356;52.202;20.950;2023-02-21T06:35:55;7.30;96.60
18454;DHT22;9356;52.202;20.950;2023-02-21T06:36:57;7.20;96.60
18454;DHT22;9356;52.202;20.950;2023-02-21T06:38:01;7.30;96.50
18454;DHT22;9356;52.202;20.950;2023-02-21T06:39:03;7.20;96.60
18454;DHT22;9356;52.202;20.950;2023-02-21T06:40:10;7.20;96.70
18454;DHT22;9356;52.202;20.950;2023-02-21T06:41:14;7.20;96.80
18454;DHT22;9356;52.202;20.950;2023-02-21T06:42:18;7.20;96.70
18454;DHT22;9356;52.202;20.950;2023-02-21T06:43:23;7.20;96.70
18454;DHT22;9356;52.202;20.950;2023-02-21T06:44:26;7.20;96.60
18454;DHT22;9356;52.202;20.950;2023-02-21T06:45:29;7.20;96.70
18454;DHT22;9356;52.202;20.950;2023-02-21T06:46:33;7.20;96.80
18454;DHT22;9356;52.202;20.950;2023-02-21T06:47:37;7.20;96.80
18454;DHT22;9356;52.202;20.950;2023-02-21T06:48:42;7.30;96.80
18454;DHT22;9356;52.202;20.950;2023-02-21T06:49:44;7.30;96.80
18454;DHT22;9356;52.202;20.950;2023-02-21T06:50:48;7.20;96.80
18454;DHT22;9356;52.202;20.950;2023-02-21T06:51:50;7.20;96.70
18454;DHT22;9356;52.202;20.950;2023-02-21T06:52:54;7.20;96.80
18454;DHT22;9356;52.202;20.950;2023-02-21T06:53:57;7.20;96.90
18454;DHT22;9356;52.202;20.950;2023-02-21T06:55:01;7.20;96.90
18454;DHT22;9356;52.202;20.950;2023-02-21T06:56:05;7.10;97.20
18454;DHT22;9356;52.202;20.950;2023-02-21T06:57:08;7.10;97.30
18454;DHT22;9356;52.202;20.950;2023-02-21T06:58:12;7.10;97.40
18454;DHT22;9356;52.202;20.950;2023-02-21T06:59:16;7.10;97.50
18454;DHT22;9356;52.202;20.950;2023-02-21T07:00:20;7.10;97.50
18454;DHT22;9356;52.202;20.950;2023-02-21T07:01:25;7.10;97.60
18454;DHT22;9356;52.202;20.950;2023-02-21T07:02:30;7.10;98.40
18454;DHT22;9356;52.202;20.950;2023-02-21T07:03:32;7.10;98.00
18454;DHT22;9356;52.202;20.950;2023-02-21T07:04:36;7.10;98.00
18454;DHT22;9356;52.202;20.950;2023-02-21T07:05:40;7.00;98.10
18454;DHT22;9356;52.202;20.950;2023-02-21T07:06:43;7.10;98.20
18454;DHT22;9356;52.202;20.950;2023-02-21T07:07:46;7.10;98.40
18454;DHT22;9356;52.202;20.950;2023-02-21T07:08:49;7.10;98.60
18454;DHT22;9356;52.202;20.950;2023-02-21T07:09:53;7.10;98.70
18454;DHT22;9356;52.202;20.950;2023-02-21T07:10:56;7.00;98.90
18454;DHT22;9356;52.202;20.950;2023-02-21T07:11:59;7.10;99.00
18454;DHT22;9356;52.202;20.950;2023-02-21T07:13:01;7.00;99.00
18454;DHT22;9356;52.202;20.950;2023-02-21T07:14:05;7.00;99.00
18454;DHT22;9356;52.202;20.950;2023-02-21T07:15:11;6.90;99.20
18454;DHT22;9356;52.202;20.950;2023-02-21T07:16:13;6.90;99.20
18454;DHT22;9356;52.202;20.950;2023-02-21T07:17:19;7.00;99.20
18454;DHT22;9356;52.202;20.950;2023-02-21T07:18:21;6.90;99.10
18454;DHT22;9356;52.202;20.950;2023-02-21T07:19:25;6.90;99.20
18454;DHT22;9356;52.202;20.950;2023-02-21T07:20:27;6.90;99.30
18454;DHT22;9356;52.202;20.950;2023-02-21T07:21:32;6.90;99.20
18454;DHT22;9356;52.202;20.950;2023-02-21T07:22:34;6.70;99.40
18454;DHT22;9356;52.202;20.950;2023-02-21T07:23:38;6.70;99.40
18454;DHT22;9356;52.202;20.950;2023-02-21T07:24:41;6.80;99.50
18454;DHT22;9356;52.202;20.950;2023-02-21T07:25:44;6.80;99.50
18454;DHT22;9356;52.202;20.950;2023-02-21T07:26:48;6.90;99.30
18454;DHT22;9356;52.202;20.950;2023-02-21T07:27:51;6.90;99.10
18454;DHT22;9356;52.202;20.950;2023-02-21T07:28:55;6.90;99.10
18454;DHT22;9356;52.202;20.950;2023-02-21T07:29:58;6.90;98.90
18454;DHT22;9356;52.202;20.950;2023-02-21T07:31:03;6.90;99.00
18454;DHT22;9356;52.202;20.950;2023-02-21T07:32:06;7.00;99.00
18454;DHT22;9356;52.202;20.950;2023-02-21T07:33:10;6.90;98.80
18454;DHT22;9356;52.202;20.950;2023-02-21T07:34:12;7.00;98.90
18454;DHT22;9356;52.202;20.950;2023-02-21T07:35:16;7.00;98.90
18454;DHT22;9356;52.202;20.950;2023-02-21T07:36:20;7.00;99.00
18454;DHT22;9356;52.202;20.950;2023-02-21T07:37:24;7.00;99.00
18454;DHT22;9356;52.202;20.950;2023-02-21T07:38:30;7.00;99.00